Terminal Aerodrome Forecast
Issued by NWS Jackson, MS

Home | Current Version | Previous Version | Text Only | Print | Product List | Glossary On
Versions: 1 2 3 4 5 6 7 8 9 10 11 12 13 14 15 16 17 18 19
000
FTUS44 KMEG 181126
TAFTUP
TAF
KTUP 181126Z 1812/1912 03005KT P6SM SCT025 OVC035
      TEMPO 1813/1816 BKN025
     FM182100 11004KT P6SM FEW025 BKN040
     FM190200 13005KT 6SM BR VCSH BKN025
     FM190600 16005KT 4SM -SHRA BR OVC012=

USA.gov is the U.S. government's official web portal to all federal, state and local government web resources and services.